Frankfort, KY (40601)

02:36 PM EDT del 23 Settembre 2014 (GMT -0400)
Capital City | Change Station
CLOSE
Current Station
Aeroporto
Location: Frankfort,
Altitudine: 804 ft
Stazioni meteo nelle vicinanze

Alt. 804 ft 38.18 °N, 84.90 °W | Updated 43 minutes ago

Clear
Sereno
69 °F
Sembra 69 °F
N
8
Vento Variabile Vento da Est

Oggi
Massima -- | Minima -- °F
--% Possibilità di precip.
Ieri
Massima -- | Minima -- °F
Precip. -- in
7:28 AM 7:35 PM
Luna calante, 0% visible
Pressione 30.31 in
Visibilità 10.0 miglia
Nuvole Sereno
Punto di rugiada 43 °F
Umidità 39%
Piovosità 0.00 in
Spessore del manto nevoso Non disponibile.
Raggi UV 8 fuori da 12
Polline 5.10 fuori da 12
Ozono Buono
PM2.5 Moderato
Flu Activity Non disponibile.
METAR KFFT 231753Z AUTO 08007KT 10SM CLR 21/06 A3032 RMK AO2 SLP264 T02060061 10206 20056 58004

More Conditions Fewer Conditions

Pressione 30.31 in
Visibilità 10.0 miglia
Nuvole Sereno
Punto di rugiada 43 °F
Umidità 39%
Piovosità 0.00 in
Spessore del manto nevoso Non disponibile.
Raggi UV 8 fuori da 12
Polline 5.10 fuori da 12
Ozono Buono
PM2.5 Moderato
Flu Activity Non disponibile.
METAR KFFT 231753Z AUTO 08007KT 10SM CLR 21/06 A3032 RMK AO2 SLP264 T02060061 10206 20056 58004

More Conditions Fewer Conditions

10-Day Weather Forecast

Almanac

Astronomia

Sep. 23, 2014 Alba Tramonto
Ora attuale 07:28 EDT 19:35 EDT
Crepuscolo civile 07:02 EDT 20:01 EDT
Crepuscolo nautico 06:31 EDT 20:32 EDT
Crepuscolo astronomico 06:00 EDT 21:03 EDT
Luna 06:52 EDT 19:13 EDT
Estensione della luce visibile 12h 59m
Lunghezza del giorno
12h 06m
Tomorrow will be 2m 27s shorter.
Luna calante, 0% of the Moon is Illuminated
Oggi
Luna calante
Set 24
Nuovo
Ott 1
Primo quarto
Ott 8
Luna piena
Ott 15
Ultimo quarto

Gli estremi di oggi

State Highs State Lows

Community

WunderPhotos

Upload Photos

1,755,775 foto caricate!

Nearby

Qualità dell'aria

  Qualità dell'aria Indice AQ Inquinante
Ieri Buono
PM2.5
Ieri Buono
OZONE
Attuale Moderato
PM2.5
Attuale Buono
OZONE
Martedì Buono
PM2.5
Martedì Buono
OZONE
Mercoledì Buono
PM2.5
Mercoledì Buono
OZONE
Giovedì Moderato
PM2.5
Giovedì Buono
OZONE

Profondità neve

Stazione Profondità Altitudine
Non sono state evidenziate nuove nevicate

Attività sismica

Città  Distanza Mag. Data & Ora
Non sono state riportate attività sismiche nelle vicinanze.
Minimo Magnitudo Mostrato è 2.5.

Temperature delle acque costiere

Località Temperatura
Nessun dato dalle stazioni

Stazioni meteo nelle vicinanze